sensor_id;sensor_type;location;lat;lon;timestamp;P1;durP1;ratioP1;P2;durP2;ratioP2
46318;SDS011;32042;50.916;2.926;2023-09-07T00:01:49;14.80;;;13.45;;
46318;SDS011;32042;50.916;2.926;2023-09-07T00:04:17;15.27;;;13.85;;
46318;SDS011;32042;50.916;2.926;2023-09-07T00:06:44;14.73;;;13.48;;
46318;SDS011;32042;50.916;2.926;2023-09-07T00:09:10;13.32;;;12.32;;
46318;SDS011;32042;50.916;2.926;2023-09-07T00:11:39;15.75;;;14.40;;
46318;SDS011;32042;50.916;2.926;2023-09-07T00:14:05;17.40;;;15.60;;
46318;SDS011;32042;50.916;2.926;2023-09-07T00:16:31;14.73;;;13.43;;
46318;SDS011;32042;50.916;2.926;2023-09-07T00:19:00;14.55;;;13.25;;
46318;SDS011;32042;50.916;2.926;2023-09-07T00:21:27;16.38;;;14.75;;
46318;SDS011;32042;50.916;2.926;2023-09-07T00:23:54;16.60;;;13.50;;
46318;SDS011;32042;50.916;2.926;2023-09-07T00:26:20;15.30;;;13.98;;
46318;SDS011;32042;50.916;2.926;2023-09-07T00:28:46;15.20;;;13.77;;
46318;SDS011;32042;50.916;2.926;2023-09-07T00:31:12;15.32;;;14.02;;
46318;SDS011;32042;50.916;2.926;2023-09-07T00:33:37;13.50;;;12.13;;
46318;SDS011;32042;50.916;2.926;2023-09-07T00:36:03;15.38;;;13.93;;
46318;SDS011;32042;50.916;2.926;2023-09-07T00:38:29;16.70;;;14.98;;
46318;SDS011;32042;50.916;2.926;2023-09-07T00:40:55;13.77;;;12.65;;
46318;SDS011;32042;50.916;2.926;2023-09-07T00:43:21;14.23;;;13.07;;
46318;SDS011;32042;50.916;2.926;2023-09-07T00:45:46;15.60;;;13.43;;
46318;SDS011;32042;50.916;2.926;2023-09-07T00:48:13;15.30;;;13.90;;
46318;SDS011;32042;50.916;2.926;2023-09-07T00:50:41;14.07;;;13.07;;
46318;SDS011;32042;50.916;2.926;2023-09-07T00:53:07;13.85;;;12.70;;
46318;SDS011;32042;50.916;2.926;2023-09-07T00:55:33;16.27;;;14.80;;
46318;SDS011;32042;50.916;2.926;2023-09-07T00:58:03;15.75;;;13.57;;
46318;SDS011;32042;50.916;2.926;2023-09-07T01:00:30;15.23;;;13.70;;
46318;SDS011;32042;50.916;2.926;2023-09-07T01:02:56;15.13;;;13.82;;
46318;SDS011;32042;50.916;2.926;2023-09-07T01:05:24;14.15;;;12.88;;
46318;SDS011;32042;50.916;2.926;2023-09-07T01:07:59;14.05;;;12.75;;
46318;SDS011;32042;50.916;2.926;2023-09-07T01:10:30;14.20;;;12.52;;
46318;SDS011;32042;50.916;2.926;2023-09-07T01:12:56;14.75;;;13.45;;
46318;SDS011;32042;50.916;2.926;2023-09-07T01:15:22;15.68;;;13.70;;
46318;SDS011;32042;50.916;2.926;2023-09-07T01:17:47;15.05;;;13.50;;
46318;SDS011;32042;50.916;2.926;2023-09-07T01:20:14;15.98;;;14.02;;
46318;SDS011;32042;50.916;2.926;2023-09-07T01:22:41;15.15;;;13.75;;
46318;SDS011;32042;50.916;2.926;2023-09-07T01:25:08;14.65;;;13.40;;
46318;SDS011;32042;50.916;2.926;2023-09-07T01:27:34;14.30;;;13.00;;
46318;SDS011;32042;50.916;2.926;2023-09-07T01:30:01;15.13;;;13.65;;
46318;SDS011;32042;50.916;2.926;2023-09-07T01:32:27;14.18;;;12.90;;
46318;SDS011;32042;50.916;2.926;2023-09-07T01:34:55;13.45;;;12.35;;
46318;SDS011;32042;50.916;2.926;2023-09-07T01:37:23;12.43;;;11.38;;
46318;SDS011;32042;50.916;2.926;2023-09-07T01:39:49;12.88;;;11.75;;
46318;SDS011;32042;50.916;2.926;2023-09-07T01:42:15;14.32;;;13.02;;
46318;SDS011;32042;50.916;2.926;2023-09-07T01:44:40;13.70;;;12.45;;
46318;SDS011;32042;50.916;2.926;2023-09-07T01:47:08;14.88;;;13.57;;
46318;SDS011;32042;50.916;2.926;2023-09-07T01:49:33;15.05;;;13.75;;
46318;SDS011;32042;50.916;2.926;2023-09-07T01:51:59;15.50;;;14.00;;
46318;SDS011;32042;50.916;2.926;2023-09-07T01:54:25;17.27;;;15.35;;
46318;SDS011;32042;50.916;2.926;2023-09-07T01:56:50;15.95;;;14.35;;
46318;SDS011;32042;50.916;2.926;2023-09-07T01:59:16;14.88;;;13.48;;
46318;SDS011;32042;50.916;2.926;2023-09-07T02:01:42;14.45;;;13.20;;
46318;SDS011;32042;50.916;2.926;2023-09-07T02:04:08;16.00;;;14.52;;
46318;SDS011;32042;50.916;2.926;2023-09-07T02:06:33;20.13;;;15.85;;
46318;SDS011;32042;50.916;2.926;2023-09-07T02:08:59;16.10;;;14.52;;
46318;SDS011;32042;50.916;2.926;2023-09-07T02:11:25;15.60;;;14.15;;
46318;SDS011;32042;50.916;2.926;2023-09-07T02:13:51;19.17;;;16.75;;
46318;SDS011;32042;50.916;2.926;2023-09-07T02:16:17;17.92;;;16.05;;
46318;SDS011;32042;50.916;2.926;2023-09-07T02:18:43;17.38;;;15.55;;
46318;SDS011;32042;50.916;2.926;2023-09-07T02:21:11;17.05;;;15.07;;
46318;SDS011;32042;50.916;2.926;2023-09-07T02:23:37;17.73;;;16.02;;
46318;SDS011;32042;50.916;2.926;2023-09-07T02:26:03;17.27;;;15.55;;
46318;SDS011;32042;50.916;2.926;2023-09-07T02:28:29;18.77;;;14.82;;
46318;SDS011;32042;50.916;2.926;2023-09-07T02:31:01;17.73;;;16.02;;
46318;SDS011;32042;50.916;2.926;2023-09-07T02:33:32;16.13;;;14.73;;
46318;SDS011;32042;50.916;2.926;2023-09-07T02:36:00;16.08;;;14.55;;
46318;SDS011;32042;50.916;2.926;2023-09-07T02:38:28;15.18;;;12.48;;
46318;SDS011;32042;50.916;2.926;2023-09-07T02:40:55;20.77;;;16.02;;
46318;SDS011;32042;50.916;2.926;2023-09-07T02:43:23;16.67;;;15.00;;
46318;SDS011;32042;50.916;2.926;2023-09-07T02:45:50;17.40;;;14.80;;
46318;SDS011;32042;50.916;2.926;2023-09-07T02:48:17;22.70;;;16.52;;
46318;SDS011;32042;50.916;2.926;2023-09-07T02:50:44;17.75;;;15.43;;
46318;SDS011;32042;50.916;2.926;2023-09-07T02:53:14;14.77;;;13.50;;
46318;SDS011;32042;50.916;2.926;2023-09-07T02:55:40;14.40;;;13.10;;
46318;SDS011;32042;50.916;2.926;2023-09-07T02:58:06;18.58;;;16.75;;
46318;SDS011;32042;50.916;2.926;2023-09-07T03:00:32;17.05;;;15.55;;
46318;SDS011;32042;50.916;2.926;2023-09-07T03:02:57;16.33;;;14.93;;
46318;SDS011;32042;50.916;2.926;2023-09-07T03:05:26;16.45;;;14.95;;
46318;SDS011;32042;50.916;2.926;2023-09-07T03:07:53;18.50;;;16.70;;
46318;SDS011;32042;50.916;2.926;2023-09-07T03:10:19;16.10;;;14.52;;
46318;SDS011;32042;50.916;2.926;2023-09-07T03:12:44;17.77;;;16.05;;
46318;SDS011;32042;50.916;2.926;2023-09-07T03:15:10;17.08;;;15.07;;
46318;SDS011;32042;50.916;2.926;2023-09-07T03:17:37;18.13;;;16.30;;
46318;SDS011;32042;50.916;2.926;2023-09-07T03:20:03;18.73;;;14.25;;
46318;SDS011;32042;50.916;2.926;2023-09-07T03:22:38;17.05;;;15.45;;
46318;SDS011;32042;50.916;2.926;2023-09-07T03:25:08;16.30;;;14.70;;
46318;SDS011;32042;50.916;2.926;2023-09-07T03:27:35;19.52;;;15.45;;
46318;SDS011;32042;50.916;2.926;2023-09-07T03:30:02;19.20;;;16.42;;
46318;SDS011;32042;50.916;2.926;2023-09-07T03:32:29;20.40;;;18.05;;
46318;SDS011;32042;50.916;2.926;2023-09-07T03:34:58;18.48;;;16.10;;
46318;SDS011;32042;50.916;2.926;2023-09-07T03:37:28;22.50;;;19.33;;
46318;SDS011;32042;50.916;2.926;2023-09-07T03:39:54;23.50;;;18.35;;
46318;SDS011;32042;50.916;2.926;2023-09-07T03:42:20;21.40;;;18.20;;
46318;SDS011;32042;50.916;2.926;2023-09-07T03:44:46;20.60;;;18.48;;
46318;SDS011;32042;50.916;2.926;2023-09-07T03:47:13;17.73;;;15.85;;
46318;SDS011;32042;50.916;2.926;2023-09-07T03:49:40;18.60;;;16.80;;
46318;SDS011;32042;50.916;2.926;2023-09-07T03:52:06;19.13;;;15.07;;
46318;SDS011;32042;50.916;2.926;2023-09-07T03:54:32;17.98;;;16.17;;
46318;SDS011;32042;50.916;2.926;2023-09-07T03:56:57;19.27;;;16.70;;
46318;SDS011;32042;50.916;2.926;2023-09-07T03:59:23;17.02;;;15.48;;
46318;SDS011;32042;50.916;2.926;2023-09-07T04:01:49;15.82;;;14.43;;
46318;SDS011;32042;50.916;2.926;2023-09-07T04:04:15;21.10;;;18.65;;
46318;SDS011;32042;50.916;2.926;2023-09-07T04:06:41;18.42;;;16.67;;
46318;SDS011;32042;50.916;2.926;2023-09-07T04:09:06;16.52;;;14.93;;
46318;SDS011;32042;50.916;2.926;2023-09-07T04:11:32;16.27;;;14.68;;
46318;SDS011;32042;50.916;2.926;2023-09-07T04:13:58;20.08;;;17.95;;
46318;SDS011;32042;50.916;2.926;2023-09-07T04:16:23;18.15;;;14.75;;
46318;SDS011;32042;50.916;2.926;2023-09-07T04:18:49;15.77;;;14.38;;
46318;SDS011;32042;50.916;2.926;2023-09-07T04:21:15;25.17;;;19.90;;
46318;SDS011;32042;50.916;2.926;2023-09-07T04:23:40;20.98;;;17.20;;
46318;SDS011;32042;50.916;2.926;2023-09-07T04:26:07;20.02;;;18.23;;
46318;SDS011;32042;50.916;2.926;2023-09-07T04:28:33;26.45;;;21.50;;
46318;SDS011;32042;50.916;2.926;2023-09-07T04:30:59;31.38;;;20.55;;
46318;SDS011;32042;50.916;2.926;2023-09-07T04:33:26;25.27;;;19.60;;
46318;SDS011;32042;50.916;2.926;2023-09-07T04:35:54;23.08;;;19.60;;
46318;SDS011;32042;50.916;2.926;2023-09-07T04:38:20;22.77;;;20.23;;
46318;SDS011;32042;50.916;2.926;2023-09-07T04:40:45;26.52;;;21.40;;
46318;SDS011;32042;50.916;2.926;2023-09-07T04:43:11;24.33;;;19.38;;
46318;SDS011;32042;50.916;2.926;2023-09-07T04:45:44;24.48;;;21.85;;
46318;SDS011;32042;50.916;2.926;2023-09-07T04:48:11;23.33;;;18.63;;
46318;SDS011;32042;50.916;2.926;2023-09-07T04:50:37;27.23;;;21.17;;
46318;SDS011;32042;50.916;2.926;2023-09-07T04:53:03;27.60;;;21.17;;
46318;SDS011;32042;50.916;2.926;2023-09-07T04:55:28;23.38;;;20.30;;
46318;SDS011;32042;50.916;2.926;2023-09-07T04:57:54;28.83;;;23.75;;
46318;SDS011;32042;50.916;2.926;2023-09-07T05:00:20;26.27;;;20.80;;
46318;SDS011;32042;50.916;2.926;2023-09-07T05:02:46;33.03;;;21.83;;
46318;SDS011;32042;50.916;2.926;2023-09-07T05:05:12;24.88;;;20.55;;
46318;SDS011;32042;50.916;2.926;2023-09-07T05:07:37;23.67;;;19.15;;
46318;SDS011;32042;50.916;2.926;2023-09-07T05:10:03;36.67;;;22.52;;
46318;SDS011;32042;50.916;2.926;2023-09-07T05:12:31;31.17;;;21.17;;
46318;SDS011;32042;50.916;2.926;2023-09-07T05:14:57;45.97;;;23.38;;
46318;SDS011;32042;50.916;2.926;2023-09-07T05:17:24;48.92;;;22.08;;
46318;SDS011;32042;50.916;2.926;2023-09-07T05:19:50;32.70;;;21.58;;
46318;SDS011;32042;50.916;2.926;2023-09-07T05:22:16;33.70;;;18.98;;
46318;SDS011;32042;50.916;2.926;2023-09-07T05:24:42;27.20;;;18.63;;
46318;SDS011;32042;50.916;2.926;2023-09-07T05:27:10;34.65;;;22.70;;
46318;SDS011;32042;50.916;2.926;2023-09-07T05:29:35;23.08;;;16.65;;
46318;SDS011;32042;50.916;2.926;2023-09-07T05:32:01;28.08;;;21.35;;
46318;SDS011;32042;50.916;2.926;2023-09-07T05:34:27;31.63;;;22.88;;
46318;SDS011;32042;50.916;2.926;2023-09-07T05:36:52;31.25;;;23.52;;
46318;SDS011;32042;50.916;2.926;2023-09-07T05:39:18;30.55;;;20.63;;
46318;SDS011;32042;50.916;2.926;2023-09-07T05:41:44;27.83;;;21.83;;
46318;SDS011;32042;50.916;2.926;2023-09-07T05:44:10;25.58;;;22.08;;
46318;SDS011;32042;50.916;2.926;2023-09-07T05:46:35;29.98;;;22.42;;
46318;SDS011;32042;50.916;2.926;2023-09-07T05:49:01;25.58;;;22.17;;
46318;SDS011;32042;50.916;2.926;2023-09-07T05:51:27;24.52;;;22.02;;
46318;SDS011;32042;50.916;2.926;2023-09-07T05:53:53;26.17;;;23.08;;
46318;SDS011;32042;50.916;2.926;2023-09-07T05:56:20;25.40;;;22.08;;
46318;SDS011;32042;50.916;2.926;2023-09-07T05:58:46;27.20;;;21.17;;
46318;SDS011;32042;50.916;2.926;2023-09-07T06:01:11;23.75;;;21.27;;
46318;SDS011;32042;50.916;2.926;2023-09-07T06:03:37;24.35;;;21.77;;
46318;SDS011;32042;50.916;2.926;2023-09-07T06:06:04;27.00;;;21.95;;
46318;SDS011;32042;50.916;2.926;2023-09-07T06:08:30;28.08;;;22.52;;
46318;SDS011;32042;50.916;2.926;2023-09-07T06:10:56;25.02;;;22.42;;
46318;SDS011;32042;50.916;2.926;2023-09-07T06:13:21;22.35;;;20.02;;
46318;SDS011;32042;50.916;2.926;2023-09-07T06:15:47;22.60;;;20.30;;
46318;SDS011;32042;50.916;2.926;2023-09-07T06:18:13;23.23;;;19.80;;
46318;SDS011;32042;50.916;2.926;2023-09-07T06:20:38;20.45;;;18.55;;
46318;SDS011;32042;50.916;2.926;2023-09-07T06:23:04;21.90;;;19.73;;
46318;SDS011;32042;50.916;2.926;2023-09-07T06:25:30;20.73;;;18.92;;
46318;SDS011;32042;50.916;2.926;2023-09-07T06:27:56;22.98;;;20.60;;
46318;SDS011;32042;50.916;2.926;2023-09-07T06:30:21;22.50;;;19.35;;
46318;SDS011;32042;50.916;2.926;2023-09-07T06:32:47;22.52;;;20.27;;
46318;SDS011;32042;50.916;2.926;2023-09-07T06:35:13;19.77;;;17.92;;
46318;SDS011;32042;50.916;2.926;2023-09-07T06:37:39;21.33;;;19.33;;
46318;SDS011;32042;50.916;2.926;2023-09-07T06:40:07;20.38;;;18.25;;
46318;SDS011;32042;50.916;2.926;2023-09-07T06:42:34;20.25;;;17.38;;
46318;SDS011;32042;50.916;2.926;2023-09-07T06:45:00;19.50;;;17.63;;
46318;SDS011;32042;50.916;2.926;2023-09-07T06:47:25;18.38;;;16.38;;
46318;SDS011;32042;50.916;2.926;2023-09-07T06:49:51;18.90;;;16.92;;
46318;SDS011;32042;50.916;2.926;2023-09-07T06:52:17;18.27;;;16.45;;
46318;SDS011;32042;50.916;2.926;2023-09-07T06:54:42;18.30;;;16.40;;
46318;SDS011;32042;50.916;2.926;2023-09-07T06:57:08;20.35;;;17.08;;
46318;SDS011;32042;50.916;2.926;2023-09-07T06:59:34;17.70;;;15.90;;
46318;SDS011;32042;50.916;2.926;2023-09-07T07:02:00;17.75;;;15.93;;
46318;SDS011;32042;50.916;2.926;2023-09-07T07:04:26;17.65;;;15.13;;
46318;SDS011;32042;50.916;2.926;2023-09-07T07:06:52;16.10;;;14.68;;
46318;SDS011;32042;50.916;2.926;2023-09-07T07:09:18;16.30;;;14.68;;
46318;SDS011;32042;50.916;2.926;2023-09-07T07:11:44;19.65;;;16.48;;
46318;SDS011;32042;50.916;2.926;2023-09-07T07:14:10;16.30;;;14.70;;
46318;SDS011;32042;50.916;2.926;2023-09-07T07:16:37;16.83;;;14.98;;
46318;SDS011;32042;50.916;2.926;2023-09-07T07:19:02;25.10;;;15.55;;
46318;SDS011;32042;50.916;2.926;2023-09-07T07:21:28;15.30;;;13.90;;
46318;SDS011;32042;50.916;2.926;2023-09-07T07:23:54;15.65;;;14.10;;
46318;SDS011;32042;50.916;2.926;2023-09-07T07:26:20;16.33;;;13.27;;
46318;SDS011;32042;50.916;2.926;2023-09-07T07:28:45;14.48;;;13.18;;
46318;SDS011;32042;50.916;2.926;2023-09-07T07:31:11;14.48;;;13.25;;
46318;SDS011;32042;50.916;2.926;2023-09-07T07:33:37;15.55;;;14.07;;
46318;SDS011;32042;50.916;2.926;2023-09-07T07:36:03;13.27;;;12.05;;
46318;SDS011;32042;50.916;2.926;2023-09-07T07:38:30;13.07;;;11.82;;
46318;SDS011;32042;50.916;2.926;2023-09-07T07:40:55;13.93;;;12.70;;
46318;SDS011;32042;50.916;2.926;2023-09-07T07:43:21;12.73;;;11.30;;
46318;SDS011;32042;50.916;2.926;2023-09-07T07:45:47;12.77;;;11.48;;
46318;SDS011;32042;50.916;2.926;2023-09-07T07:48:13;13.40;;;12.00;;
46318;SDS011;32042;50.916;2.926;2023-09-07T07:50:38;14.82;;;12.25;;
46318;SDS011;32042;50.916;2.926;2023-09-07T07:53:05;17.45;;;12.27;;
46318;SDS011;32042;50.916;2.926;2023-09-07T07:55:34;13.63;;;12.32;;
46318;SDS011;32042;50.916;2.926;2023-09-07T07:58:07;13.45;;;12.18;;
46318;SDS011;32042;50.916;2.926;2023-09-07T08:00:34;12.43;;;11.27;;
46318;SDS011;32042;50.916;2.926;2023-09-07T08:03:00;11.50;;;10.60;;
46318;SDS011;32042;50.916;2.926;2023-09-07T08:05:33;12.00;;;10.88;;
46318;SDS011;32042;50.916;2.926;2023-09-07T08:07:59;11.65;;;10.63;;
46318;SDS011;32042;50.916;2.926;2023-09-07T08:10:25;11.93;;;10.70;;
46318;SDS011;32042;50.916;2.926;2023-09-07T08:12:54;11.65;;;10.35;;
46318;SDS011;32042;50.916;2.926;2023-09-07T08:15:20;11.80;;;10.60;;
46318;SDS011;32042;50.916;2.926;2023-09-07T08:17:48;11.10;;;10.02;;
46318;SDS011;32042;50.916;2.926;2023-09-07T08:20:14;10.93;;;9.82;;
46318;SDS011;32042;50.916;2.926;2023-09-07T08:22:40;11.30;;;10.18;;
46318;SDS011;32042;50.916;2.926;2023-09-07T08:25:10;10.60;;;9.70;;
46318;SDS011;32042;50.916;2.926;2023-09-07T08:27:38;10.82;;;9.85;;
46318;SDS011;32042;50.916;2.926;2023-09-07T08:30:12;11.27;;;9.98;;
46318;SDS011;32042;50.916;2.926;2023-09-07T08:32:43;10.45;;;9.45;;
46318;SDS011;32042;50.916;2.926;2023-09-07T08:35:11;11.18;;;9.77;;
46318;SDS011;32042;50.916;2.926;2023-09-07T08:37:42;8.82;;;8.13;;
46318;SDS011;32042;50.916;2.926;2023-09-07T08:40:08;10.55;;;9.65;;
46318;SDS011;32042;50.916;2.926;2023-09-07T08:42:37;14.15;;;9.63;;
46318;SDS011;32042;50.916;2.926;2023-09-07T08:45:04;14.27;;;9.85;;
46318;SDS011;32042;50.916;2.926;2023-09-07T08:47:36;10.40;;;9.50;;
46318;SDS011;32042;50.916;2.926;2023-09-07T08:50:03;10.90;;;9.43;;
46318;SDS011;32042;50.916;2.926;2023-09-07T08:52:33;10.93;;;10.00;;
46318;SDS011;32042;50.916;2.926;2023-09-07T08:54:59;10.02;;;9.05;;
46318;SDS011;32042;50.916;2.926;2023-09-07T08:57:29;11.80;;;9.30;;
46318;SDS011;32042;50.916;2.926;2023-09-07T08:59:55;10.70;;;9.73;;
46318;SDS011;32042;50.916;2.926;2023-09-07T09:02:21;11.55;;;9.35;;
46318;SDS011;32042;50.916;2.926;2023-09-07T09:04:47;8.88;;;8.10;;
46318;SDS011;32042;50.916;2.926;2023-09-07T09:07:13;7.80;;;7.00;;
46318;SDS011;32042;50.916;2.926;2023-09-07T09:09:39;7.80;;;7.07;;
46318;SDS011;32042;50.916;2.926;2023-09-07T09:12:09;8.88;;;7.13;;
46318;SDS011;32042;50.916;2.926;2023-09-07T09:14:39;7.95;;;7.10;;
46318;SDS011;32042;50.916;2.926;2023-09-07T09:17:13;9.15;;;8.35;;
46318;SDS011;32042;50.916;2.926;2023-09-07T09:19:40;10.48;;;7.70;;
46318;SDS011;32042;50.916;2.926;2023-09-07T09:22:09;9.30;;;7.95;;
46318;SDS011;32042;50.916;2.926;2023-09-07T09:24:36;7.07;;;6.47;;
46318;SDS011;32042;50.916;2.926;2023-09-07T09:27:03;12.15;;;6.97;;
46318;SDS011;32042;50.916;2.926;2023-09-07T09:29:29;9.60;;;7.95;;
46318;SDS011;32042;50.916;2.926;2023-09-07T09:31:59;8.25;;;6.72;;
46318;SDS011;32042;50.916;2.926;2023-09-07T09:34:31;7.05;;;6.43;;
46318;SDS011;32042;50.916;2.926;2023-09-07T09:36:58;7.80;;;7.05;;
46318;SDS011;32042;50.916;2.926;2023-09-07T09:39:25;7.97;;;7.28;;
46318;SDS011;32042;50.916;2.926;2023-09-07T09:41:51;9.60;;;6.07;;
46318;SDS011;32042;50.916;2.926;2023-09-07T09:44:18;11.05;;;6.13;;
46318;SDS011;32042;50.916;2.926;2023-09-07T09:46:47;8.02;;;7.22;;
46318;SDS011;32042;50.916;2.926;2023-09-07T09:49:14;6.03;;;5.35;;
46318;SDS011;32042;50.916;2.926;2023-09-07T09:51:41;5.88;;;5.35;;
46318;SDS011;32042;50.916;2.926;2023-09-07T09:54:08;7.07;;;5.38;;
46318;SDS011;32042;50.916;2.926;2023-09-07T09:56:35;8.00;;;5.10;;
46318;SDS011;32042;50.916;2.926;2023-09-07T09:59:00;5.47;;;4.68;;
46318;SDS011;32042;50.916;2.926;2023-09-07T10:01:26;5.63;;;5.00;;
46318;SDS011;32042;50.916;2.926;2023-09-07T10:03:54;5.15;;;4.75;;
46318;SDS011;32042;50.916;2.926;2023-09-07T10:06:24;5.47;;;4.90;;
46318;SDS011;32042;50.916;2.926;2023-09-07T10:09:06;5.57;;;5.07;;
46318;SDS011;32042;50.916;2.926;2023-09-07T10:11:36;5.20;;;4.78;;
46318;SDS011;32042;50.916;2.926;2023-09-07T10:14:03;6.18;;;4.35;;
46318;SDS011;32042;50.916;2.926;2023-09-07T10:16:46;7.72;;;5.70;;
46318;SDS011;32042;50.916;2.926;2023-09-07T10:19:17;7.10;;;6.40;;
46318;SDS011;32042;50.916;2.926;2023-09-07T10:21:43;6.68;;;5.80;;
46318;SDS011;32042;50.916;2.926;2023-09-07T10:24:09;7.10;;;6.40;;
46318;SDS011;32042;50.916;2.926;2023-09-07T10:26:35;7.47;;;6.30;;
46318;SDS011;32042;50.916;2.926;2023-09-07T10:29:01;7.95;;;5.50;;
46318;SDS011;32042;50.916;2.926;2023-09-07T10:31:29;10.77;;;5.93;;
46318;SDS011;32042;50.916;2.926;2023-09-07T10:34:15;6.45;;;5.30;;
46318;SDS011;32042;50.916;2.926;2023-09-07T10:36:42;11.95;;;5.97;;
46318;SDS011;32042;50.916;2.926;2023-09-07T10:39:09;5.45;;;4.88;;
46318;SDS011;32042;50.916;2.926;2023-09-07T10:41:41;6.75;;;4.03;;
46318;SDS011;32042;50.916;2.926;2023-09-07T10:44:10;7.28;;;4.47;;
46318;SDS011;32042;50.916;2.926;2023-09-07T10:46:37;8.15;;;4.43;;
46318;SDS011;32042;50.916;2.926;2023-09-07T10:49:05;5.78;;;5.18;;
46318;SDS011;32042;50.916;2.926;2023-09-07T10:51:33;7.80;;;5.40;;
46318;SDS011;32042;50.916;2.926;2023-09-07T10:54:16;8.52;;;5.00;;
46318;SDS011;32042;50.916;2.926;2023-09-07T10:56:45;5.22;;;4.72;;
46318;SDS011;32042;50.916;2.926;2023-09-07T10:59:12;6.80;;;4.72;;
46318;SDS011;32042;50.916;2.926;2023-09-07T11:01:39;4.72;;;4.32;;
46318;SDS011;32042;50.916;2.926;2023-09-07T11:04:04;5.22;;;4.72;;
46318;SDS011;32042;50.916;2.926;2023-09-07T11:06:33;4.88;;;4.20;;
46318;SDS011;32042;50.916;2.926;2023-09-07T11:08:59;5.65;;;4.55;;
46318;SDS011;32042;50.916;2.926;2023-09-07T11:11:29;4.38;;;3.97;;
46318;SDS011;32042;50.916;2.926;2023-09-07T11:13:58;4.75;;;4.10;;
46318;SDS011;32042;50.916;2.926;2023-09-07T11:16:24;4.10;;;3.70;;
46318;SDS011;32042;50.916;2.926;2023-09-07T11:18:53;4.32;;;3.92;;
46318;SDS011;32042;50.916;2.926;2023-09-07T11:21:20;6.00;;;3.65;;
46318;SDS011;32042;50.916;2.926;2023-09-07T11:23:46;4.13;;;3.78;;
46318;SDS011;32042;50.916;2.926;2023-09-07T11:26:11;6.38;;;4.03;;
46318;SDS011;32042;50.916;2.926;2023-09-07T11:28:38;4.50;;;4.20;;
46318;SDS011;32042;50.916;2.926;2023-09-07T11:31:06;3.72;;;3.42;;
46318;SDS011;32042;50.916;2.926;2023-09-07T11:33:31;4.32;;;3.80;;
46318;SDS011;32042;50.916;2.926;2023-09-07T11:35:58;5.30;;;4.43;;
46318;SDS011;32042;50.916;2.926;2023-09-07T11:38:29;5.00;;;4.43;;
46318;SDS011;32042;50.916;2.926;2023-09-07T11:40:59;4.97;;;4.53;;
46318;SDS011;32042;50.916;2.926;2023-09-07T11:43:25;6.05;;;4.15;;
46318;SDS011;32042;50.916;2.926;2023-09-07T11:45:51;4.70;;;4.15;;
46318;SDS011;32042;50.916;2.926;2023-09-07T11:48:17;4.72;;;4.05;;
46318;SDS011;32042;50.916;2.926;2023-09-07T11:50:43;5.13;;;4.68;;
46318;SDS011;32042;50.916;2.926;2023-09-07T11:53:08;8.73;;;5.05;;
46318;SDS011;32042;50.916;2.926;2023-09-07T11:55:34;6.80;;;4.38;;
46318;SDS011;32042;50.916;2.926;2023-09-07T11:58:01;5.38;;;4.85;;
46318;SDS011;32042;50.916;2.926;2023-09-07T12:00:27;7.13;;;3.95;;
46318;SDS011;32042;50.916;2.926;2023-09-07T12:02:56;4.65;;;4.13;;
46318;SDS011;32042;50.916;2.926;2023-09-07T12:05:21;4.93;;;4.40;;
46318;SDS011;32042;50.916;2.926;2023-09-07T12:07:47;6.32;;;4.35;;
46318;SDS011;32042;50.916;2.926;2023-09-07T12:10:13;8.93;;;4.82;;
46318;SDS011;32042;50.916;2.926;2023-09-07T12:12:39;5.85;;;4.88;;
46318;SDS011;32042;50.916;2.926;2023-09-07T12:15:06;6.82;;;4.57;;
46318;SDS011;32042;50.916;2.926;2023-09-07T12:17:32;4.63;;;4.20;;
46318;SDS011;32042;50.916;2.926;2023-09-07T12:19:59;4.80;;;4.40;;
46318;SDS011;32042;50.916;2.926;2023-09-07T12:22:28;4.82;;;3.67;;
46318;SDS011;32042;50.916;2.926;2023-09-07T12:24:53;7.88;;;4.28;;
46318;SDS011;32042;50.916;2.926;2023-09-07T12:27:19;7.20;;;3.88;;
46318;SDS011;32042;50.916;2.926;2023-09-07T12:29:45;4.28;;;3.53;;
46318;SDS011;32042;50.916;2.926;2023-09-07T12:32:11;5.43;;;3.63;;
46318;SDS011;32042;50.916;2.926;2023-09-07T12:34:36;4.03;;;3.67;;
46318;SDS011;32042;50.916;2.926;2023-09-07T12:37:03;4.10;;;3.80;;
46318;SDS011;32042;50.916;2.926;2023-09-07T12:39:29;5.43;;;3.95;;
46318;SDS011;32042;50.916;2.926;2023-09-07T12:41:56;4.00;;;3.70;;
46318;SDS011;32042;50.916;2.926;2023-09-07T12:44:22;3.97;;;3.63;;
46318;SDS011;32042;50.916;2.926;2023-09-07T12:46:47;6.63;;;3.60;;
46318;SDS011;32042;50.916;2.926;2023-09-07T12:49:13;6.40;;;3.55;;
46318;SDS011;32042;50.916;2.926;2023-09-07T12:51:41;4.90;;;4.07;;
46318;SDS011;32042;50.916;2.926;2023-09-07T12:54:07;3.83;;;3.40;;
46318;SDS011;32042;50.916;2.926;2023-09-07T12:56:33;3.85;;;3.05;;
46318;SDS011;32042;50.916;2.926;2023-09-07T12:58:59;4.60;;;3.35;;
46318;SDS011;32042;50.916;2.926;2023-09-07T13:01:25;4.63;;;3.60;;
46318;SDS011;32042;50.916;2.926;2023-09-07T13:03:51;5.25;;;3.35;;
46318;SDS011;32042;50.916;2.926;2023-09-07T13:06:17;4.95;;;3.72;;
46318;SDS011;32042;50.916;2.926;2023-09-07T13:08:43;4.82;;;3.42;;
46318;SDS011;32042;50.916;2.926;2023-09-07T13:11:10;5.97;;;3.42;;
46318;SDS011;32042;50.916;2.926;2023-09-07T13:13:36;4.30;;;3.90;;
46318;SDS011;32042;50.916;2.926;2023-09-07T13:16:03;4.10;;;3.42;;
46318;SDS011;32042;50.916;2.926;2023-09-07T13:18:29;6.82;;;3.38;;
46318;SDS011;32042;50.916;2.926;2023-09-07T13:20:55;4.97;;;3.70;;
46318;SDS011;32042;50.916;2.926;2023-09-07T13:23:30;5.40;;;3.80;;
46318;SDS011;32042;50.916;2.926;2023-09-07T13:25:56;4.07;;;3.10;;
46318;SDS011;32042;50.916;2.926;2023-09-07T13:28:22;3.58;;;3.30;;
46318;SDS011;32042;50.916;2.926;2023-09-07T13:30:49;4.15;;;3.17;;
46318;SDS011;32042;50.916;2.926;2023-09-07T13:33:15;4.10;;;3.70;;
46318;SDS011;32042;50.916;2.926;2023-09-07T13:35:41;4.70;;;3.22;;
46318;SDS011;32042;50.916;2.926;2023-09-07T13:38:07;3.60;;;3.30;;
46318;SDS011;32042;50.916;2.926;2023-09-07T13:40:32;3.70;;;3.28;;
46318;SDS011;32042;50.916;2.926;2023-09-07T13:42:58;7.95;;;3.50;;
46318;SDS011;32042;50.916;2.926;2023-09-07T13:45:24;3.50;;;3.20;;
46318;SDS011;32042;50.916;2.926;2023-09-07T13:47:50;5.18;;;3.33;;
46318;SDS011;32042;50.916;2.926;2023-09-07T13:50:15;5.70;;;3.60;;
46318;SDS011;32042;50.916;2.926;2023-09-07T13:52:41;3.30;;;3.10;;
46318;SDS011;32042;50.916;2.926;2023-09-07T13:55:07;4.88;;;3.50;;
46318;SDS011;32042;50.916;2.926;2023-09-07T13:57:33;5.95;;;3.42;;
46318;SDS011;32042;50.916;2.926;2023-09-07T13:59:59;4.60;;;3.45;;
46318;SDS011;32042;50.916;2.926;2023-09-07T14:02:25;5.03;;;3.88;;
46318;SDS011;32042;50.916;2.926;2023-09-07T14:04:51;3.55;;;3.25;;
46318;SDS011;32042;50.916;2.926;2023-09-07T14:07:17;4.38;;;3.00;;
46318;SDS011;32042;50.916;2.926;2023-09-07T14:09:43;4.10;;;3.80;;
46318;SDS011;32042;50.916;2.926;2023-09-07T14:12:09;4.00;;;3.70;;
46318;SDS011;32042;50.916;2.926;2023-09-07T14:14:35;7.40;;;3.90;;
46318;SDS011;32042;50.916;2.926;2023-09-07T14:17:01;3.67;;;3.38;;
46318;SDS011;32042;50.916;2.926;2023-09-07T14:19:27;4.05;;;3.63;;
46318;SDS011;32042;50.916;2.926;2023-09-07T14:21:56;4.82;;;3.80;;
46318;SDS011;32042;50.916;2.926;2023-09-07T14:24:22;4.22;;;3.92;;
46318;SDS011;32042;50.916;2.926;2023-09-07T14:26:48;4.85;;;3.92;;
46318;SDS011;32042;50.916;2.926;2023-09-07T14:29:14;7.05;;;3.60;;